createdAt,value
2022-11-28T00:02:00.848Z,48.70
2022-11-28T00:04:29.472Z,51.92
2022-11-28T00:06:59.304Z,47.80
2022-11-28T00:09:28.131Z,47.83
2022-11-28T00:11:56.712Z,48.10
2022-11-28T00:14:25.699Z,48.08
2022-11-28T00:16:54.062Z,47.20
2022-11-28T00:19:22.879Z,51.50
2022-11-28T00:21:51.344Z,52.95
2022-11-28T00:24:20.416Z,53.03
2022-11-28T00:26:48.891Z,49.03
2022-11-28T00:29:17.544Z,51.85
2022-11-28T00:31:45.949Z,48.42
2022-11-28T00:34:16.025Z,50.70
2022-11-28T00:36:46.125Z,48.40
2022-11-28T00:39:16.793Z,49.58
2022-11-28T00:41:45.422Z,49.67
2022-11-28T00:44:14.498Z,49.95
2022-11-28T00:46:44.570Z,45.88
2022-11-28T00:49:13.936Z,46.58
2022-11-28T00:51:42.496Z,47.50
2022-11-28T00:54:11.173Z,48.13
2022-11-28T00:56:40.764Z,46.97
2022-11-28T00:59:09.829Z,47.22
2022-11-28T01:01:41.533Z,49.25
2022-11-28T01:07:04.013Z,45.67
2022-11-28T01:09:32.706Z,45.33
2022-11-28T01:12:02.079Z,46.17
2022-11-28T01:14:30.840Z,47.80
2022-11-28T01:16:59.407Z,49.22
2022-11-28T01:19:28.376Z,46.63
2022-11-28T01:21:56.920Z,48.03
2022-11-28T01:25:01.613Z,50.10
2022-11-28T01:27:30.240Z,43.90
2022-11-28T01:29:58.986Z,46.30
2022-11-28T01:32:27.486Z,45.85
2022-11-28T01:34:56.604Z,48.17
2022-11-28T01:37:24.976Z,48.88
2022-11-28T01:39:53.970Z,47.47
2022-11-28T01:42:23.767Z,49.95
2022-11-28T01:44:52.479Z,50.95
2022-11-28T01:47:27.144Z,49.00
2022-11-28T01:49:56.304Z,51.97
2022-11-28T01:52:24.980Z,50.55
2022-11-28T01:54:57.947Z,50.97
2022-11-28T01:57:28.085Z,50.45
2022-11-28T02:00:22.518Z,48.22
2022-11-28T02:03:04.652Z,46.60
2022-11-28T02:05:33.919Z,46.70
2022-11-28T02:08:02.649Z,46.97
2022-11-28T02:11:24.596Z,48.80
2022-11-28T02:14:11.690Z,44.33
2022-11-28T02:17:16.358Z,43.40
2022-11-28T02:19:51.836Z,45.58
2022-11-28T02:26:11.327Z,47.22
2022-11-28T02:28:58.832Z,44.22
2022-11-28T02:32:02.003Z,46.10
2022-11-28T02:34:56.092Z,47.67
2022-11-28T02:37:40.883Z,44.80
2022-11-28T02:40:22.113Z,50.35
2022-11-28T02:43:21.831Z,49.20
2022-11-28T02:46:14.969Z,52.50
2022-11-28T02:48:55.496Z,43.53
2022-11-28T02:51:31.057Z,46.92
2022-11-28T02:54:01.802Z,47.25
2022-11-28T02:56:30.799Z,43.87
2022-11-28T02:58:59.374Z,44.35
2022-11-28T03:02:00.439Z,46.13
2022-11-28T03:05:18.274Z,48.25
2022-11-28T03:10:56.236Z,43.17
2022-11-28T03:13:36.574Z,44.40
2022-11-28T03:16:43.541Z,43.78
2022-11-28T03:19:25.680Z,43.72
2022-11-28T03:22:07.748Z,42.63
2022-11-28T03:24:58.415Z,44.72
2022-11-28T03:27:39.823Z,47.33
2022-11-28T03:30:21.996Z,45.15
2022-11-28T03:32:53.517Z,43.42
2022-11-28T03:35:27.919Z,42.38
2022-11-28T03:38:03.282Z,45.80
2022-11-28T03:40:40.617Z,42.38
2022-11-28T03:43:14.869Z,41.67
2022-11-28T03:46:13.412Z,43.35
2022-11-28T03:48:48.623Z,39.47
2022-11-28T03:51:22.433Z,41.05
2022-11-28T03:53:57.143Z,40.25
2022-11-28T03:56:38.439Z,38.83
2022-11-28T03:59:18.929Z,38.85
2022-11-28T04:02:24.376Z,40.30
2022-11-28T04:05:09.555Z,37.83
2022-11-28T04:07:47.805Z,39.13
2022-11-28T04:10:23.275Z,39.22
2022-11-28T04:13:26.512Z,37.60
2022-11-28T04:16:09.707Z,36.20
2022-11-28T04:18:48.502Z,37.03
2022-11-28T04:21:27.756Z,34.17
2022-11-28T04:24:03.007Z,34.42
2022-11-28T04:26:35.661Z,35.92
2022-11-28T04:29:11.086Z,42.17
2022-11-28T04:31:41.431Z,44.78
2022-11-28T04:34:23.644Z,40.10
2022-11-28T04:36:54.273Z,41.20
2022-11-28T04:39:26.655Z,37.93
2022-11-28T04:42:05.719Z,37.33
2022-11-28T04:44:37.962Z,38.08
2022-11-28T04:49:35.115Z,33.97
2022-11-28T04:52:20.343Z,36.05
2022-11-28T04:55:01.173Z,37.90
2022-11-28T04:57:35.727Z,34.78
2022-11-28T05:00:12.211Z,36.13
2022-11-28T05:02:42.481Z,34.08
2022-11-28T05:05:16.750Z,36.38
2022-11-28T05:07:52.789Z,37.88
2022-11-28T05:10:35.940Z,32.95
2022-11-28T05:13:05.485Z,40.78
2022-11-28T05:15:33.853Z,42.75
2022-11-28T05:18:02.856Z,43.67
2022-11-28T05:20:31.687Z,34.92
2022-11-28T05:23:07.780Z,34.00
2022-11-28T05:25:39.688Z,33.10
2022-11-28T05:28:09.095Z,31.77
2022-11-28T05:30:37.314Z,33.40
2022-11-28T05:33:07.332Z,36.55
2022-11-28T05:35:38.767Z,37.05
2022-11-28T05:38:12.190Z,37.97
2022-11-28T05:45:28.057Z,35.10
2022-11-28T05:49:06.303Z,33.47
2022-11-28T05:52:00.408Z,36.17
2022-11-28T05:59:00.015Z,32.53
2022-11-28T06:26:57.340Z,30.90
2022-11-28T06:29:31.289Z,31.80
2022-11-28T06:32:21.699Z,36.72
2022-11-28T06:35:15.717Z,40.45
2022-11-28T06:37:58.342Z,39.08
2022-11-28T08:38:49.920Z,48.40
2022-11-28T09:53:21.203Z,47.28
2022-11-28T09:59:28.601Z,40.80
2022-11-28T10:02:04.843Z,38.58
2022-11-28T10:04:52.220Z,39.25
2022-11-28T10:07:23.810Z,39.30
2022-11-28T10:10:10.383Z,37.33
2022-11-28T10:12:54.479Z,38.65
2022-11-28T10:15:38.207Z,38.85
2022-11-28T10:18:30.973Z,38.22
2022-11-28T10:23:43.861Z,37.25
2022-11-28T10:26:27.180Z,36.88
2022-11-28T10:29:00.345Z,35.33
2022-11-28T10:31:35.279Z,35.05
2022-11-28T10:34:34.904Z,36.45
2022-11-28T10:37:32.711Z,39.33
2022-11-28T10:40:32.163Z,34.70
2022-11-28T10:43:29.254Z,33.30
2022-11-28T10:46:16.199Z,33.70
2022-11-28T10:49:17.968Z,31.92
2022-11-28T10:52:20.756Z,30.90
2022-11-28T10:55:17.440Z,28.50
2022-11-28T10:57:55.253Z,27.13
2022-11-28T11:00:23.850Z,30.38
2022-11-28T11:02:55.416Z,27.92
2022-11-28T11:05:32.991Z,29.67
2022-11-28T11:08:22.852Z,30.98
2022-11-28T11:11:19.290Z,26.23
2022-11-28T11:14:07.406Z,26.35
2022-11-28T11:16:59.744Z,27.48
2022-11-28T11:19:34.784Z,27.20
2022-11-28T11:22:21.124Z,26.95
2022-11-28T11:25:17.327Z,25.13
2022-11-28T11:27:54.986Z,28.50
2022-11-28T11:30:27.484Z,29.15
2022-11-28T11:32:58.024Z,30.88
2022-11-28T11:35:48.267Z,31.10
2022-11-28T11:38:22.947Z,28.60
2022-11-28T11:40:52.559Z,28.88
2022-11-28T11:43:39.306Z,27.98
2022-11-28T11:46:13.227Z,26.25
2022-11-28T11:48:42.619Z,24.48
2022-11-28T11:51:36.614Z,25.50
2022-11-28T11:54:17.979Z,23.48
2022-11-28T11:57:00.740Z,24.75
2022-11-28T12:02:41.067Z,25.45
2022-11-28T12:05:13.645Z,24.67
2022-11-28T12:07:54.242Z,24.25
2022-11-28T12:10:26.514Z,25.80
2022-11-28T12:12:55.476Z,26.58
2022-11-28T12:16:00.439Z,26.35
2022-11-28T12:19:07.254Z,30.13
2022-11-28T12:22:13.414Z,24.65
2022-11-28T12:24:48.764Z,25.02
2022-11-28T12:27:51.187Z,23.40
2022-11-28T12:30:39.108Z,26.02
2022-11-28T12:33:36.502Z,26.50
2022-11-28T12:36:14.905Z,24.30
2022-11-28T12:39:25.440Z,25.55
2022-11-28T12:42:06.144Z,28.30
2022-11-28T12:45:05.447Z,25.65
2022-11-28T12:47:48.846Z,25.25
2022-11-28T12:51:08.281Z,24.00
2022-11-28T12:53:48.581Z,25.60
2022-11-28T12:56:29.101Z,24.85
2022-11-28T12:59:22.595Z,23.13
2022-11-28T13:02:16.284Z,24.98
2022-11-28T13:05:29.482Z,23.83
2022-11-28T13:08:17.268Z,23.85
2022-11-28T13:10:54.274Z,22.88
2022-11-28T13:13:32.807Z,22.73
2022-11-28T13:16:30.790Z,25.50
2022-11-28T13:19:09.118Z,24.25
2022-11-28T13:21:55.398Z,24.98
2022-11-28T13:24:34.168Z,23.13
2022-11-28T13:27:17.216Z,24.88
2022-11-28T13:30:12.641Z,24.63
2022-11-28T13:32:57.936Z,26.20
2022-11-28T13:35:28.578Z,27.38
2022-11-28T13:38:36.193Z,26.08
2022-11-28T13:41:43.329Z,24.77
2022-11-28T13:44:17.925Z,27.80
2022-11-28T13:46:46.861Z,27.88
2022-11-28T13:49:26.911Z,33.55
2022-11-28T13:52:18.298Z,30.65
2022-11-28T13:54:55.987Z,32.42
2022-11-28T13:57:44.246Z,30.48
2022-11-28T14:00:19.159Z,29.42
2022-11-28T14:02:56.068Z,32.38
2022-11-28T14:05:36.194Z,31.50
2022-11-28T14:08:07.452Z,30.27
2022-11-28T14:11:14.929Z,31.50
2022-11-28T14:14:08.083Z,33.00
2022-11-28T14:16:58.448Z,37.58
2022-11-28T14:19:55.586Z,35.22
2022-11-28T14:22:33.961Z,35.35
2022-11-28T14:25:11.026Z,36.35
2022-11-28T14:27:47.492Z,39.92
2022-11-28T14:30:43.627Z,37.60
2022-11-28T14:33:31.045Z,32.83
2022-11-28T14:36:34.380Z,31.80
2022-11-28T14:39:12.276Z,33.00
2022-11-28T14:42:02.751Z,34.90
2022-11-28T14:45:00.777Z,36.25
2022-11-28T14:47:39.656Z,35.15
2022-11-28T14:50:13.675Z,32.38
2022-11-28T14:53:34.111Z,31.23
2022-11-28T15:00:44.078Z,31.95
2022-11-28T15:03:44.970Z,33.67
2022-11-28T15:06:40.496Z,30.42
2022-11-28T15:09:38.349Z,28.95
2022-11-28T15:13:08.129Z,38.42
2022-11-28T15:15:28.509Z,36.10
2022-11-28T15:18:02.030Z,69.22
2022-11-28T15:20:46.732Z,61.08
2022-11-28T15:24:01.663Z,38.40
2022-11-28T15:27:24.591Z,42.43
2022-11-28T15:30:26.761Z,42.50
2022-11-28T15:34:20.542Z,39.85
2022-11-28T15:37:13.232Z,41.33
2022-11-28T15:39:43.087Z,40.50
2022-11-28T15:42:38.995Z,37.70
2022-11-28T15:45:30.159Z,41.83
2022-11-28T15:47:59.418Z,37.47
2022-11-28T15:50:30.272Z,38.63
2022-11-28T15:53:05.005Z,40.73
2022-11-28T15:55:34.780Z,43.25
2022-11-28T15:58:12.555Z,46.15
2022-11-28T16:00:48.933Z,37.60
2022-11-28T16:03:33.102Z,41.03
2022-11-28T16:06:03.320Z,36.97
2022-11-28T16:09:23.604Z,48.50
2022-11-28T16:11:54.049Z,38.15
2022-11-28T16:14:48.468Z,38.63
2022-11-28T16:17:23.956Z,45.67
2022-11-28T16:19:54.483Z,48.35
2022-11-28T16:22:29.405Z,35.22
2022-11-28T16:25:11.208Z,36.85
2022-11-28T16:27:45.733Z,34.30
2022-11-28T16:30:23.751Z,34.47
2022-11-28T16:33:06.879Z,33.35
2022-11-28T16:35:41.725Z,32.05
2022-11-28T16:38:33.487Z,35.05
2022-11-28T16:44:44.909Z,36.55
2022-11-28T16:48:30.372Z,36.33
2022-11-28T16:52:13.904Z,40.50
2022-11-28T16:58:40.987Z,37.30
2022-11-28T17:01:10.496Z,35.63
2022-11-28T17:06:48.379Z,37.85
2022-11-28T17:10:40.263Z,68.63
2022-11-28T17:13:27.721Z,44.10
2022-11-28T17:15:55.908Z,50.25
2022-11-28T17:18:39.151Z,43.00
2022-11-28T17:21:43.816Z,32.65
2022-11-28T17:24:39.368Z,44.40
2022-11-28T17:27:32.201Z,43.70
2022-11-28T17:30:26.699Z,51.50
2022-11-28T17:32:57.110Z,38.88
2022-11-28T17:35:30.304Z,37.08
2022-11-28T17:37:59.091Z,44.15
2022-11-28T17:43:26.369Z,40.15
2022-11-28T17:45:58.437Z,38.08
2022-11-28T17:48:27.140Z,39.15
2022-11-28T17:51:20.905Z,35.90
2022-11-28T17:54:18.015Z,38.13
2022-11-28T17:56:49.743Z,35.00
2022-11-28T17:59:24.182Z,37.95
2022-11-28T18:01:55.747Z,42.10
2022-11-28T18:04:54.800Z,47.60
2022-11-28T18:07:24.334Z,39.50
2022-11-28T18:09:53.207Z,49.28
2022-11-28T18:12:22.511Z,41.35
2022-11-28T18:14:51.136Z,47.80
2022-11-28T18:17:19.413Z,40.05
2022-11-28T18:19:47.964Z,36.10
2022-11-28T18:22:17.264Z,36.25
2022-11-28T18:24:46.088Z,36.53
2022-11-28T18:27:14.383Z,53.72
2022-11-28T18:29:43.527Z,34.75
2022-11-28T18:32:12.245Z,39.45
2022-11-28T18:34:41.238Z,39.33
2022-11-28T18:37:11.067Z,47.17
2022-11-28T18:39:39.632Z,55.22
2022-11-28T18:42:55.375Z,43.15
2022-11-28T18:45:51.551Z,37.10
2022-11-28T18:48:20.146Z,36.15
2022-11-28T18:50:49.370Z,38.20
2022-11-28T18:53:35.007Z,38.97
2022-11-28T18:56:36.941Z,34.45
2022-11-28T18:59:15.940Z,36.65
2022-11-28T19:01:48.620Z,49.78
2022-11-28T19:04:46.068Z,47.08
2022-11-28T19:07:15.144Z,35.35
2022-11-28T19:09:48.545Z,33.80
2022-11-28T19:12:48.332Z,36.72
2022-11-28T19:15:19.671Z,35.80
2022-11-28T19:17:48.333Z,33.70
2022-11-28T19:20:17.609Z,31.98
2022-11-28T19:22:46.784Z,33.40
2022-11-28T19:25:15.602Z,31.15
2022-11-28T19:27:44.646Z,31.65
2022-11-28T19:30:13.754Z,33.47
2022-11-28T19:32:42.459Z,32.70
2022-11-28T19:35:10.929Z,33.90
2022-11-28T19:37:41.560Z,31.15
2022-11-28T19:40:10.453Z,31.05
2022-11-28T19:42:40.272Z,35.22
2022-11-28T19:45:09.849Z,36.08
2022-11-28T19:47:38.779Z,39.92
2022-11-28T19:50:09.063Z,35.55
2022-11-28T19:52:38.396Z,35.38
2022-11-28T19:55:07.909Z,41.92
2022-11-28T19:58:03.572Z,40.72
2022-11-28T20:00:34.946Z,34.78
2022-11-28T20:03:04.528Z,31.13
2022-11-28T20:05:35.294Z,60.03
2022-11-28T20:12:25.721Z,52.22
2022-11-28T20:14:58.303Z,30.58
2022-11-28T20:20:22.231Z,27.38
2022-11-28T20:22:51.727Z,28.73
2022-11-28T20:25:21.116Z,31.02
2022-11-28T20:27:51.513Z,36.08
2022-11-28T20:30:20.721Z,38.45
2022-11-28T20:33:15.945Z,35.15
2022-11-28T20:35:44.521Z,31.20
2022-11-28T20:38:12.874Z,38.22
2022-11-28T20:40:41.486Z,32.03
2022-11-28T20:44:01.196Z,34.78
2022-11-28T20:46:33.719Z,36.65
2022-11-28T20:51:34.167Z,33.72
2022-11-28T20:54:14.091Z,33.05
2022-11-28T20:59:33.160Z,30.13
2022-11-28T21:02:02.402Z,29.13
2022-11-28T21:04:31.794Z,39.80
2022-11-28T21:07:00.383Z,31.92
2022-11-28T21:09:28.658Z,34.63
2022-11-28T21:11:58.892Z,36.90
2022-11-28T21:14:29.402Z,30.15
2022-11-28T21:17:01.909Z,30.42
2022-11-28T21:19:31.316Z,29.63
2022-11-28T21:22:08.588Z,28.58
2022-11-28T21:25:02.307Z,28.70
2022-11-28T21:27:31.503Z,29.42
2022-11-28T21:29:59.895Z,27.85
2022-11-28T21:32:28.918Z,28.70
2022-11-28T21:35:02.579Z,28.90
2022-11-28T21:37:33.513Z,29.85
2022-11-28T21:40:02.026Z,29.33
2022-11-28T21:42:57.894Z,30.33
2022-11-28T21:45:26.733Z,29.38
2022-11-28T21:47:55.554Z,31.80
2022-11-28T21:50:24.003Z,29.88
2022-11-28T21:52:53.034Z,27.90
2022-11-28T21:55:46.136Z,27.45
2022-11-28T21:58:16.144Z,28.92
2022-11-28T22:00:53.679Z,28.85
2022-11-28T22:03:25.696Z,29.52
2022-11-28T22:06:04.179Z,27.60
2022-11-28T22:08:33.919Z,28.00
2022-11-28T22:14:00.711Z,27.20
2022-11-28T22:16:29.653Z,26.85
2022-11-28T22:19:01.034Z,27.95
2022-11-28T22:21:51.262Z,29.52
2022-11-28T22:24:18.359Z,26.27
2022-11-28T22:26:46.563Z,25.65
2022-11-28T22:29:15.259Z,25.27
2022-11-28T22:31:44.243Z,26.23
2022-11-28T22:39:24.397Z,27.00
2022-11-28T22:41:53.027Z,27.10
2022-11-28T22:44:22.315Z,26.58
2022-11-28T22:46:50.747Z,27.60
2022-11-28T22:49:20.618Z,28.27
2022-11-28T22:51:49.225Z,25.25
2022-11-28T22:54:18.138Z,26.85
2022-11-28T22:56:46.516Z,27.05
2022-11-28T22:59:16.270Z,26.38
2022-11-28T23:01:46.022Z,25.50
2022-11-28T23:04:14.552Z,24.63
2022-11-28T23:06:43.075Z,25.80
2022-11-28T23:09:14.140Z,25.38
2022-11-28T23:11:42.733Z,26.15
2022-11-28T23:14:15.563Z,25.80
2022-11-28T23:16:45.271Z,25.83
2022-11-28T23:19:18.686Z,26.00
2022-11-28T23:21:49.855Z,25.77
2022-11-28T23:24:23.002Z,26.63
2022-11-28T23:26:52.643Z,27.38
2022-11-28T23:29:21.423Z,26.65
2022-11-28T23:31:50.687Z,26.27
2022-11-28T23:34:19.571Z,24.92
2022-11-28T23:36:49.036Z,26.65
2022-11-28T23:39:20.411Z,26.52
2022-11-28T23:44:19.916Z,25.45
2022-11-28T23:46:48.878Z,25.27
2022-11-28T23:49:17.556Z,26.13
2022-11-28T23:51:46.139Z,25.52
2022-11-28T23:54:14.900Z,26.63
2022-11-28T23:56:43.438Z,27.35
2022-11-28T23:59:12.991Z,25.98
